Airfield :
LOGIN :

Register | Disclaimer

   EN    FR    IT 

 










Legend :    VFR   Marginal VFR   IFR   Intensive IFR   Very Intensive IFR
Visi :
Ceiling :
>= 8 km
>= 3000ft
5 to 8 km
1000 to 3000 ft
1500m to 5 km
500 to 1000 ft
800 to 1500m
200 to 500 ft
< 800m
< 200 ft
Symbols :   Thunderstorms  Fog  Heavy snow  Heavy precipitations  Wind > 20 kt
SIGMETs :     Misc.  Thunderstorms  Icing  Turbulence  Mountain Waves  Volcanic Ashes







- Airport Elevation : 93 ft
- IATA code : XRY


LEJR - Jerez

CURRENT METAR :
  • 151530Z 25015KT 210V270 9999 SCT019 BKN030 18/14 Q1015

EXPIRED METARs :
  • 151500Z 24014KT 9999 SCT019 BKN029 18/14 Q1015
  • 151430Z 24014KT 9999 BKN019 BKN024 18/15 Q1015
  • 151400Z 24012KT 9999 SCT020 BKN030 18/15 Q1015
  • 151330Z 25010KT 9999 BKN016 BKN024 18/15 Q1016
  • 151300Z 25011KT 220V300 9999 BKN015 19/16 Q1016

TAF TAF LEJR
Valid from the 15 at 12:00 until the 16 at 12:00 UTC


151100Z 1512/1612 26010KT 9999 SCT015 BKN025 TX18/1515Z TN04/1608Z
TEMPO 1512/1524 BKN014
PROB40
TEMPO 1518/1524 4000 RA
BECMG 1522/1601 35008KT CAVOK
No reported NOTAMs for that airfield.
1 SIGMET reported for the Madrid FIR (LECM) :
 
Severe turbulence
LECM SIGMET 4 VALID 151311/151600 LEVA
LECM MADRID UIR SEV TURB OBS AT 1308Z E OF LINE N3902 W00248 - N3648 W00258 FL250/270 MOV E NC=



MET'MAP, your aeronautical weather chart ! - Copyright ORBIFLY December 2007 - Disclaimer

ORBIFLY MET'MAP TEAM :

Programming & Development : Alexandra Zaïnal
Concept & Development : Baudouin d'Aumeries
Co-Development & Prog : Marc-Olivier Méhu
Technical & hardware support : Manuel Goepfert

Contact : metmap@orbifly.com




SOURCES & CREDITS :

   NOAA